createdAt,value
2023-05-04T16:25:21.581Z,24.37
2023-05-04T16:30:31.801Z,24.96
2023-05-04T16:35:36.707Z,25.30
2023-05-04T16:40:43.330Z,25.45
2023-05-04T16:45:47.339Z,25.51
2023-05-04T16:50:51.595Z,25.50
2023-05-04T16:55:57.701Z,25.53
2023-05-04T17:01:02.226Z,25.42
2023-05-04T17:06:06.982Z,25.33
2023-05-04T17:11:13.159Z,25.30
2023-05-04T17:16:17.237Z,25.25
2023-05-04T17:21:21.649Z,25.19
2023-05-04T17:26:28.064Z,25.21
2023-05-04T17:31:32.244Z,25.21
2023-05-04T17:36:36.596Z,25.23
2023-05-04T17:41:42.611Z,25.21
2023-05-04T17:46:47.137Z,25.16
2023-05-04T17:51:52.887Z,25.06
2023-05-04T17:56:59.113Z,24.98
2023-05-04T18:02:03.730Z,24.86
2023-05-04T18:07:08.024Z,24.74
2023-05-04T18:12:14.463Z,24.63
2023-05-04T18:17:18.907Z,24.50
2023-05-04T18:22:23.292Z,24.41
2023-05-04T18:27:32.950Z,24.37
2023-05-04T18:32:37.058Z,24.28
2023-05-04T18:37:41.493Z,24.22
2023-05-04T18:42:47.462Z,24.19
2023-05-04T18:47:51.436Z,24.11
2023-05-04T18:52:55.635Z,24.01
2023-05-04T18:58:03.437Z,23.88
2023-05-04T19:03:08.102Z,23.67
2023-05-04T19:08:12.167Z,23.41
2023-05-04T19:13:20.462Z,23.21
2023-05-04T19:18:24.954Z,23.02
2023-05-04T19:23:29.263Z,22.82
2023-05-04T19:28:35.398Z,22.68
2023-05-04T19:33:47.960Z,22.51
2023-05-04T19:38:52.681Z,22.37
2023-05-04T19:43:59.312Z,22.24
2023-05-04T19:49:03.905Z,22.11
2023-05-04T19:54:10.464Z,21.98
2023-05-04T19:59:17.617Z,21.90
2023-05-04T20:04:21.565Z,21.78
2023-05-04T20:09:25.716Z,21.67
2023-05-04T20:14:31.625Z,21.57
2023-05-04T20:19:35.517Z,21.47
2023-05-04T20:24:40.255Z,21.42
2023-05-04T20:29:46.441Z,21.37
2023-05-04T20:34:50.569Z,21.29
2023-05-04T20:39:54.947Z,21.22
2023-05-04T20:45:01.124Z,21.15
2023-05-04T20:50:05.425Z,21.05
2023-05-04T20:55:10.788Z,20.97
2023-05-04T21:00:18.557Z,20.87
2023-05-04T21:05:22.637Z,20.77
